Terminal Aerodrome Forecast
Issued by NWS

Home | Current Version | Previous Version | Text Only | Print | Product List | Glossary On
Versions: 1 2 3 4 5 6 7 8 9 10 11 12 13 14
000
FTUS43 KJKL 260527
TAFSJS
TAF
KSJS 260527Z 2606/2706 18007KT P6SM OVC160
     FM261300 17005KT 5SM -SHRA OVC040
     FM261600 20010G20KT P6SM VCSH BKN035=

USA.gov is the U.S. government's official web portal to all federal, state and local government web resources and services.